createdAt,value
2022-07-29T00:00:23.384Z,22.88
2022-07-29T00:02:57.291Z,22.84
2022-07-29T00:05:30.114Z,22.81
2022-07-29T00:08:03.471Z,22.78
2022-07-29T00:10:37.175Z,22.75
2022-07-29T00:13:10.189Z,22.72
2022-07-29T00:15:44.118Z,22.72
2022-07-29T00:18:17.418Z,22.70
2022-07-29T00:20:50.856Z,22.68
2022-07-29T00:23:24.186Z,22.65
2022-07-29T00:25:57.132Z,22.59
2022-07-29T00:28:30.308Z,22.54
2022-07-29T00:31:03.591Z,22.52
2022-07-29T00:33:37.148Z,22.52
2022-07-29T00:36:09.899Z,22.53
2022-07-29T00:38:45.417Z,22.54
2022-07-29T00:41:18.881Z,22.55
2022-07-29T00:43:53.026Z,22.55
2022-07-29T00:46:25.916Z,22.55
2022-07-29T00:48:58.754Z,22.55
2022-07-29T00:51:32.264Z,22.54
2022-07-29T00:54:07.023Z,22.51
2022-07-29T00:56:39.909Z,22.48
2022-07-29T00:59:13.728Z,22.43
2022-07-29T01:01:47.424Z,22.39
2022-07-29T01:04:20.852Z,22.39
2022-07-29T01:06:53.858Z,22.39
2022-07-29T01:09:34.983Z,22.36
2022-07-29T01:12:04.284Z,22.36
2022-07-29T01:14:39.768Z,22.36
2022-07-29T01:17:26.397Z,22.34
2022-07-29T01:20:31.887Z,22.31
2022-07-29T01:23:16.140Z,22.27
2022-07-29T01:26:11.882Z,22.23
2022-07-29T01:28:51.206Z,22.18
2022-07-29T01:31:59.207Z,22.13
2022-07-29T01:34:46.756Z,22.09
2022-07-29T01:37:38.347Z,22.07
2022-07-29T01:40:35.016Z,22.04
2022-07-29T01:43:15.314Z,22.06
2022-07-29T01:46:04.227Z,22.09
2022-07-29T01:48:53.739Z,22.12
2022-07-29T01:51:45.560Z,22.15
2022-07-29T01:54:46.857Z,22.16
2022-07-29T01:57:21.422Z,22.18
2022-07-29T01:59:54.667Z,22.16
2022-07-29T02:02:28.603Z,22.15
2022-07-29T02:05:03.083Z,22.14
2022-07-29T02:07:37.499Z,22.05
2022-07-29T02:10:13.194Z,21.95
2022-07-29T02:12:50.715Z,21.89
2022-07-29T02:15:23.593Z,21.82
2022-07-29T02:18:11.732Z,21.76
2022-07-29T02:23:25.116Z,21.76
2022-07-29T02:26:00.003Z,21.74
2022-07-29T02:28:34.935Z,21.72
2022-07-29T02:31:11.756Z,21.73
2022-07-29T02:33:45.244Z,21.75
2022-07-29T02:36:19.660Z,21.79
2022-07-29T02:38:53.905Z,21.82
2022-07-29T02:41:39.531Z,21.83
2022-07-29T02:44:17.321Z,21.83
2022-07-29T02:46:57.189Z,21.85
2022-07-29T02:49:53.754Z,21.83
2022-07-29T02:52:37.573Z,21.82
2022-07-29T02:55:46.864Z,21.84
2022-07-29T02:58:29.286Z,21.85
2022-07-29T03:01:08.484Z,21.86
2022-07-29T03:03:41.690Z,21.87
2022-07-29T03:06:31.027Z,21.87
2022-07-29T03:08:52.822Z,21.87
2022-07-29T03:11:41.498Z,21.91
2022-07-29T03:14:01.893Z,21.94
2022-07-29T03:16:41.132Z,21.98
2022-07-29T03:19:12.644Z,21.97
2022-07-29T03:21:45.672Z,21.92
2022-07-29T03:24:39.117Z,21.89
2022-07-29T03:27:12.032Z,21.91
2022-07-29T03:29:50.006Z,21.96
2022-07-29T03:32:25.079Z,22.04
2022-07-29T03:34:54.941Z,22.09
2022-07-29T03:37:28.439Z,22.15
2022-07-29T03:40:02.697Z,22.20
2022-07-29T03:42:40.080Z,22.25
2022-07-29T03:45:16.370Z,22.33
2022-07-29T03:47:59.952Z,22.39
2022-07-29T03:50:31.402Z,22.55
2022-07-29T03:53:05.772Z,22.90
2022-07-29T03:55:46.087Z,22.90
2022-07-29T03:58:22.326Z,23.14
2022-07-29T04:00:57.499Z,23.32
2022-07-29T04:03:30.429Z,23.52
2022-07-29T04:06:08.991Z,23.68
2022-07-29T04:08:42.439Z,23.84
2022-07-29T04:11:16.263Z,23.99
2022-07-29T04:13:50.284Z,24.16
2022-07-29T04:16:23.661Z,24.27
2022-07-29T04:18:56.587Z,24.29
2022-07-29T04:21:30.044Z,24.26
2022-07-29T04:24:03.465Z,24.20
2022-07-29T04:26:37.102Z,24.12
2022-07-29T04:29:09.606Z,24.08
2022-07-29T04:31:42.637Z,24.05
2022-07-29T04:34:16.130Z,24.01
2022-07-29T04:36:48.554Z,24.01
2022-07-29T04:39:23.271Z,24.00
2022-07-29T04:41:56.529Z,23.96
2022-07-29T04:44:31.231Z,23.91
2022-07-29T04:47:05.840Z,23.87
2022-07-29T04:49:43.065Z,23.85
2022-07-29T04:52:15.843Z,23.81
2022-07-29T04:54:49.151Z,23.79
2022-07-29T04:57:22.835Z,23.81
2022-07-29T04:59:55.966Z,23.86
2022-07-29T05:02:29.087Z,23.89
2022-07-29T05:05:02.812Z,23.91
2022-07-29T05:07:36.255Z,23.95
2022-07-29T05:10:10.072Z,23.99
2022-07-29T05:12:42.750Z,24.05
2022-07-29T05:15:15.475Z,24.13
2022-07-29T05:17:48.990Z,24.18
2022-07-29T05:20:23.504Z,24.20
2022-07-29T05:22:57.395Z,24.18
2022-07-29T05:25:44.366Z,24.23
2022-07-29T05:28:07.257Z,24.28
2022-07-29T05:30:40.675Z,24.31
2022-07-29T05:33:35.124Z,24.34
2022-07-29T05:35:48.811Z,24.35
2022-07-29T05:38:21.866Z,24.34
2022-07-29T05:40:54.945Z,24.37
2022-07-29T05:43:31.302Z,24.43
2022-07-29T05:46:04.406Z,24.49
2022-07-29T05:48:37.391Z,24.55
2022-07-29T05:51:10.545Z,24.64
2022-07-29T05:53:43.342Z,24.70
2022-07-29T05:56:16.568Z,24.79
2022-07-29T05:58:49.677Z,24.84
2022-07-29T06:01:22.711Z,24.90
2022-07-29T06:03:56.023Z,24.93
2022-07-29T06:06:28.858Z,24.99
2022-07-29T06:09:12.321Z,25.08
2022-07-29T06:11:39.150Z,25.16
2022-07-29T06:14:12.615Z,25.22
2022-07-29T06:16:45.525Z,25.30
2022-07-29T06:19:18.407Z,25.35
2022-07-29T06:21:52.264Z,25.41
2022-07-29T06:24:25.147Z,25.46
2022-07-29T06:26:58.732Z,25.54
2022-07-29T06:29:31.916Z,25.62
2022-07-29T06:32:04.806Z,25.70
2022-07-29T06:34:39.654Z,25.73
2022-07-29T06:37:15.557Z,25.76
2022-07-29T06:39:48.886Z,25.79
2022-07-29T06:42:22.876Z,25.84
2022-07-29T06:44:56.992Z,25.88
2022-07-29T06:47:30.629Z,25.91
2022-07-29T06:50:03.602Z,25.96
2022-07-29T06:52:38.139Z,25.99
2022-07-29T06:55:12.003Z,26.04
2022-07-29T06:57:46.544Z,26.08
2022-07-29T07:00:22.567Z,26.13
2022-07-29T07:02:56.153Z,26.16
2022-07-29T07:05:29.276Z,26.20
2022-07-29T07:08:02.709Z,26.27
2022-07-29T07:10:37.121Z,26.33
2022-07-29T07:13:09.342Z,26.36
2022-07-29T07:15:42.828Z,26.43
2022-07-29T07:18:16.718Z,26.51
2022-07-29T07:20:50.273Z,26.56
2022-07-29T07:23:23.651Z,26.58
2022-07-29T07:25:56.983Z,26.61
2022-07-29T07:28:30.200Z,26.65
2022-07-29T07:31:04.653Z,26.69
2022-07-29T07:33:38.138Z,26.77
2022-07-29T07:36:10.973Z,26.82
2022-07-29T07:38:45.197Z,26.86
2022-07-29T07:41:18.541Z,26.90
2022-07-29T07:43:51.982Z,26.94
2022-07-29T07:46:26.032Z,26.97
2022-07-29T07:48:59.533Z,27.01
2022-07-29T07:51:32.825Z,27.04
2022-07-29T07:54:05.771Z,27.09
2022-07-29T07:56:39.308Z,27.14
2022-07-29T07:59:12.773Z,27.17
2022-07-29T08:01:55.281Z,27.21
2022-07-29T08:04:25.117Z,27.23
2022-07-29T08:06:55.538Z,27.26
2022-07-29T08:09:31.209Z,27.28
2022-07-29T08:12:05.121Z,27.32
2022-07-29T08:14:38.981Z,27.38
2022-07-29T08:17:13.416Z,27.43
2022-07-29T08:19:48.556Z,27.48
2022-07-29T08:22:22.495Z,27.51
2022-07-29T08:24:57.446Z,27.56
2022-07-29T08:27:47.557Z,27.59
2022-07-29T08:30:07.966Z,27.63
2022-07-29T08:32:53.646Z,27.69
2022-07-29T08:35:16.469Z,27.74
2022-07-29T08:37:50.940Z,27.77
2022-07-29T08:40:32.099Z,27.84
2022-07-29T08:43:00.861Z,27.89
2022-07-29T08:45:48.033Z,27.94
2022-07-29T08:48:25.134Z,28.00
2022-07-29T08:50:59.827Z,28.12
2022-07-29T08:53:33.980Z,28.22
2022-07-29T08:56:07.161Z,28.28
2022-07-29T08:58:40.158Z,28.31
2022-07-29T09:01:16.664Z,28.34
2022-07-29T09:03:52.839Z,28.40
2022-07-29T09:06:27.663Z,28.48
2022-07-29T09:09:02.469Z,28.54
2022-07-29T09:11:36.094Z,28.56
2022-07-29T09:14:09.975Z,28.57
2022-07-29T09:16:57.516Z,28.53
2022-07-29T09:19:36.051Z,28.45
2022-07-29T09:22:11.312Z,28.40
2022-07-29T09:24:51.812Z,28.35
2022-07-29T09:27:30.012Z,28.33
2022-07-29T09:30:11.799Z,28.37
2022-07-29T09:33:04.208Z,28.50
2022-07-29T09:35:37.406Z,28.63
2022-07-29T09:38:15.979Z,28.73
2022-07-29T09:41:05.497Z,28.81
2022-07-29T09:43:36.429Z,28.88
2022-07-29T09:46:16.499Z,28.99
2022-07-29T09:49:12.290Z,29.08
2022-07-29T09:51:45.771Z,29.20
2022-07-29T09:54:29.666Z,29.36
2022-07-29T09:57:02.916Z,29.48
2022-07-29T09:59:36.753Z,29.53
2022-07-29T10:02:23.514Z,29.57
2022-07-29T10:04:53.571Z,29.58
2022-07-29T10:07:27.861Z,29.64
2022-07-29T10:10:01.229Z,29.69
2022-07-29T10:12:34.664Z,29.67
2022-07-29T10:15:08.563Z,29.68
2022-07-29T10:17:42.295Z,29.71
2022-07-29T10:20:16.590Z,29.65
2022-07-29T10:22:53.474Z,29.64
2022-07-29T10:25:28.203Z,29.61
2022-07-29T10:28:01.775Z,29.63
2022-07-29T10:30:36.268Z,29.70
2022-07-29T10:33:32.579Z,29.76
2022-07-29T10:36:36.298Z,29.81
2022-07-29T10:39:45.226Z,29.78
2022-07-29T10:42:33.533Z,29.75
2022-07-29T10:45:00.247Z,29.76
2022-07-29T10:47:35.052Z,29.77
2022-07-29T10:50:12.777Z,29.83
2022-07-29T10:52:58.592Z,29.94
2022-07-29T10:55:37.883Z,30.10
2022-07-29T10:58:19.657Z,30.20
2022-07-29T11:00:56.426Z,30.27
2022-07-29T11:06:28.245Z,30.24
2022-07-29T11:09:35.223Z,30.07
2022-07-29T11:11:57.626Z,29.94
2022-07-29T11:15:02.738Z,29.80
2022-07-29T11:18:02.257Z,29.71
2022-07-29T11:20:56.271Z,29.66
2022-07-29T11:23:36.729Z,29.63
2022-07-29T11:26:23.923Z,29.61
2022-07-29T11:29:01.624Z,29.59
2022-07-29T11:31:45.430Z,29.58
2022-07-29T11:34:36.738Z,29.55
2022-07-29T11:37:17.770Z,29.52
2022-07-29T11:40:02.243Z,29.49
2022-07-29T11:42:41.723Z,29.50
2022-07-29T11:45:41.253Z,29.49
2022-07-29T11:48:26.978Z,29.49
2022-07-29T11:50:44.300Z,29.47
2022-07-29T11:53:16.419Z,29.41
2022-07-29T11:55:52.094Z,29.35
2022-07-29T11:58:25.948Z,29.31
2022-07-29T12:01:04.494Z,29.27
2022-07-29T12:03:36.987Z,29.26
2022-07-29T12:06:18.273Z,29.21
2022-07-29T12:08:52.548Z,29.18
2022-07-29T12:11:25.738Z,29.16
2022-07-29T12:13:59.628Z,29.14
2022-07-29T12:16:40.618Z,29.11
2022-07-29T12:19:13.706Z,29.13
2022-07-29T12:21:59.585Z,29.19
2022-07-29T12:24:35.679Z,29.23
2022-07-29T12:27:10.884Z,29.31
2022-07-29T12:29:48.847Z,29.40
2022-07-29T12:32:21.633Z,29.52
2022-07-29T12:34:54.772Z,29.69
2022-07-29T12:37:35.785Z,29.86
2022-07-29T12:40:03.446Z,30.00
2022-07-29T12:42:38.839Z,30.12
2022-07-29T12:45:12.285Z,30.21
2022-07-29T12:47:55.397Z,30.27
2022-07-29T12:50:28.841Z,30.36
2022-07-29T12:53:15.876Z,30.39
2022-07-29T12:55:54.894Z,30.38
2022-07-29T12:58:38.260Z,30.30
2022-07-29T13:01:19.220Z,30.26
2022-07-29T13:04:00.938Z,30.24
2022-07-29T13:06:49.677Z,30.21
2022-07-29T13:09:25.088Z,30.19
2022-07-29T13:11:58.778Z,30.17
2022-07-29T13:14:41.937Z,30.24
2022-07-29T13:17:24.260Z,30.36
2022-07-29T13:20:14.907Z,30.45
2022-07-29T13:22:51.272Z,30.54
2022-07-29T13:25:31.633Z,30.56
2022-07-29T13:28:04.447Z,30.51
2022-07-29T13:30:44.484Z,30.51
2022-07-29T13:33:13.431Z,30.51
2022-07-29T13:35:46.432Z,30.55
2022-07-29T13:38:19.760Z,30.56
2022-07-29T13:40:52.909Z,30.47
2022-07-29T13:43:25.913Z,30.40
2022-07-29T13:46:00.722Z,30.36
2022-07-29T13:48:33.825Z,30.30
2022-07-29T13:51:06.894Z,30.28
2022-07-29T13:53:39.778Z,30.26
2022-07-29T13:56:13.290Z,30.25
2022-07-29T13:58:46.204Z,30.23
2022-07-29T14:01:19.562Z,30.19
2022-07-29T14:03:52.378Z,30.19
2022-07-29T14:06:25.373Z,30.21
2022-07-29T14:08:58.277Z,30.18
2022-07-29T14:11:31.061Z,30.12
2022-07-29T14:14:04.153Z,30.12
2022-07-29T14:16:42.386Z,30.20
2022-07-29T14:19:12.442Z,30.29
2022-07-29T14:21:46.137Z,30.33
2022-07-29T14:24:21.718Z,30.32
2022-07-29T14:26:54.170Z,30.35
2022-07-29T14:29:37.440Z,30.39
2022-07-29T14:32:03.165Z,30.40
2022-07-29T14:34:38.471Z,30.35
2022-07-29T14:37:16.050Z,30.26
2022-07-29T14:39:46.670Z,30.16
2022-07-29T14:42:19.574Z,30.06
2022-07-29T14:44:53.699Z,29.93
2022-07-29T14:47:27.020Z,29.83
2022-07-29T14:50:01.418Z,29.70
2022-07-29T14:52:34.883Z,29.60
2022-07-29T14:55:19.414Z,29.56
2022-07-29T14:57:46.116Z,29.54
2022-07-29T15:00:22.146Z,29.52
2022-07-29T15:03:02.789Z,29.47
2022-07-29T15:05:28.862Z,29.39
2022-07-29T15:08:03.616Z,29.26
2022-07-29T15:10:38.376Z,29.14
2022-07-29T15:13:12.388Z,29.02
2022-07-29T15:15:46.755Z,28.92
2022-07-29T15:18:25.646Z,28.83
2022-07-29T15:20:53.354Z,28.75
2022-07-29T15:23:27.723Z,28.67
2022-07-29T15:26:00.711Z,28.67
2022-07-29T15:28:33.660Z,28.77
2022-07-29T15:31:08.038Z,28.99
2022-07-29T15:33:41.718Z,29.25
2022-07-29T15:36:42.215Z,29.34
2022-07-29T15:38:54.582Z,29.38
2022-07-29T15:41:27.839Z,29.40
2022-07-29T15:44:01.108Z,29.39
2022-07-29T15:46:51.995Z,29.35
2022-07-29T15:49:27.394Z,29.32
2022-07-29T15:52:03.936Z,29.25
2022-07-29T15:54:42.795Z,29.19
2022-07-29T15:57:16.823Z,29.18
2022-07-29T15:59:49.939Z,29.28
2022-07-29T16:02:23.463Z,29.64
2022-07-29T16:04:57.596Z,29.64
2022-07-29T16:07:31.441Z,29.78
2022-07-29T16:10:08.144Z,29.88
2022-07-29T16:12:42.056Z,29.99
2022-07-29T16:15:15.106Z,30.06
2022-07-29T16:17:50.026Z,30.12
2022-07-29T16:20:23.668Z,30.17
2022-07-29T16:22:57.168Z,30.06
2022-07-29T16:25:58.243Z,29.80
2022-07-29T16:28:05.273Z,29.51
2022-07-29T16:30:39.154Z,29.19
2022-07-29T16:33:12.245Z,28.88
2022-07-29T16:35:45.856Z,28.65
2022-07-29T16:38:19.896Z,28.44
2022-07-29T16:40:52.717Z,28.27
2022-07-29T16:43:27.948Z,28.12
2022-07-29T16:46:00.150Z,27.98
2022-07-29T16:48:34.597Z,27.87
2022-07-29T16:51:10.327Z,27.75
2022-07-29T16:53:45.164Z,27.62
2022-07-29T16:56:18.551Z,27.53
2022-07-29T16:58:51.407Z,27.44
2022-07-29T17:01:24.929Z,27.35
2022-07-29T17:04:07.288Z,27.28
2022-07-29T17:06:42.348Z,27.18
2022-07-29T17:09:15.385Z,27.07
2022-07-29T17:11:56.199Z,26.98
2022-07-29T17:14:31.573Z,26.90
2022-07-29T17:17:05.158Z,26.80
2022-07-29T17:19:40.462Z,26.71
2022-07-29T17:22:19.320Z,26.64
2022-07-29T17:24:49.905Z,26.55
2022-07-29T17:27:24.132Z,26.47
2022-07-29T17:29:57.222Z,26.38
2022-07-29T17:32:33.273Z,26.31
2022-07-29T17:35:25.787Z,26.23
2022-07-29T17:37:58.664Z,26.16
2022-07-29T17:40:31.901Z,26.07
2022-07-29T17:43:07.554Z,25.97
2022-07-29T17:45:50.303Z,25.92
2022-07-29T17:48:15.431Z,25.86
2022-07-29T17:50:49.290Z,25.79
2022-07-29T17:53:22.597Z,25.72
2022-07-29T17:55:56.484Z,25.66
2022-07-29T17:58:29.281Z,25.62
2022-07-29T18:01:02.746Z,25.55
2022-07-29T18:03:36.220Z,25.49
2022-07-29T18:06:11.239Z,25.41
2022-07-29T18:08:47.448Z,25.33
2022-07-29T18:11:22.075Z,25.26
2022-07-29T18:13:54.983Z,25.17
2022-07-29T18:16:28.770Z,25.08
2022-07-29T18:19:02.677Z,25.00
2022-07-29T18:21:42.727Z,24.96
2022-07-29T18:24:11.387Z,24.89
2022-07-29T18:26:44.962Z,24.84
2022-07-29T18:29:18.591Z,24.79
2022-07-29T18:31:51.715Z,24.72
2022-07-29T18:34:26.203Z,24.66
2022-07-29T18:36:59.599Z,24.60
2022-07-29T18:39:33.468Z,24.55
2022-07-29T18:42:06.875Z,24.49
2022-07-29T18:44:43.645Z,24.38
2022-07-29T18:47:15.100Z,24.31
2022-07-29T18:49:48.065Z,24.24
2022-07-29T18:52:21.944Z,24.20
2022-07-29T18:54:54.953Z,24.21
2022-07-29T18:57:53.767Z,24.19
2022-07-29T19:00:03.004Z,24.15
2022-07-29T19:02:38.447Z,24.14
2022-07-29T19:05:12.657Z,24.12
2022-07-29T19:07:46.182Z,24.11
2022-07-29T19:10:19.693Z,24.10
2022-07-29T19:12:53.186Z,24.09
2022-07-29T19:15:26.391Z,24.04
2022-07-29T19:18:01.282Z,24.02
2022-07-29T19:20:34.472Z,24.01
2022-07-29T19:23:09.176Z,23.98
2022-07-29T19:25:53.247Z,23.97
2022-07-29T19:28:16.821Z,23.95
2022-07-29T19:30:50.267Z,23.91
2022-07-29T19:33:23.576Z,23.88
2022-07-29T19:35:56.517Z,23.84
2022-07-29T19:38:30.290Z,23.80
2022-07-29T19:41:06.404Z,23.77
2022-07-29T19:43:51.441Z,23.75
2022-07-29T19:46:13.861Z,23.71
2022-07-29T19:48:47.712Z,23.70
2022-07-29T19:51:21.580Z,23.68
2022-07-29T19:53:54.501Z,23.66
2022-07-29T19:56:29.233Z,23.63
2022-07-29T19:59:02.163Z,23.62
2022-07-29T20:01:35.215Z,23.61
2022-07-29T20:04:08.453Z,23.57
2022-07-29T20:06:41.351Z,23.54
2022-07-29T20:09:16.936Z,23.50
2022-07-29T20:11:49.735Z,23.44
2022-07-29T20:14:22.672Z,23.39
2022-07-29T20:16:56.232Z,23.36
2022-07-29T20:19:29.861Z,23.33
2022-07-29T20:22:03.478Z,23.29
2022-07-29T20:24:36.521Z,23.24
2022-07-29T20:27:13.706Z,23.20
2022-07-29T20:29:46.380Z,23.15
2022-07-29T20:32:20.138Z,23.11
2022-07-29T20:34:53.092Z,23.04
2022-07-29T20:37:28.269Z,23.00
2022-07-29T20:40:03.595Z,22.96
2022-07-29T20:42:36.928Z,22.93
2022-07-29T20:45:11.675Z,22.89
2022-07-29T20:47:45.943Z,22.82
2022-07-29T20:50:23.856Z,22.82
2022-07-29T20:52:57.632Z,22.79
2022-07-29T20:55:32.239Z,22.76
2022-07-29T20:58:06.064Z,22.67
2022-07-29T21:00:39.194Z,22.67
2022-07-29T21:03:12.050Z,22.61
2022-07-29T21:05:45.887Z,22.61
2022-07-29T21:08:18.796Z,22.56
2022-07-29T21:10:51.746Z,22.51
2022-07-29T21:13:25.830Z,22.45
2022-07-29T21:16:00.090Z,22.41
2022-07-29T21:18:34.734Z,22.37
2022-07-29T21:21:08.613Z,22.33
2022-07-29T21:23:43.763Z,22.29
2022-07-29T21:26:16.605Z,22.26
2022-07-29T21:28:50.511Z,22.23
2022-07-29T21:31:24.267Z,22.20
2022-07-29T21:33:57.116Z,22.14
2022-07-29T21:39:06.380Z,22.06
2022-07-29T21:41:39.711Z,22.02
2022-07-29T21:44:12.662Z,22.00
2022-07-29T21:46:46.198Z,21.95
2022-07-29T21:49:19.287Z,21.92
2022-07-29T21:51:53.143Z,21.91
2022-07-29T21:54:26.049Z,21.88
2022-07-29T21:57:00.856Z,21.86
2022-07-29T21:59:34.486Z,21.83
2022-07-29T22:02:07.616Z,21.82
2022-07-29T22:04:40.602Z,21.79
2022-07-29T22:07:14.023Z,21.80
2022-07-29T22:09:46.938Z,21.80
2022-07-29T22:12:19.973Z,21.80
2022-07-29T22:14:53.806Z,21.80
2022-07-29T22:17:27.231Z,21.80
2022-07-29T22:20:00.816Z,21.80
2022-07-29T22:22:33.947Z,21.79
2022-07-29T22:25:08.203Z,21.77
2022-07-29T22:27:41.950Z,21.78
2022-07-29T22:30:15.410Z,21.77
2022-07-29T22:32:49.901Z,21.77
2022-07-29T22:35:22.749Z,21.77
2022-07-29T22:37:55.570Z,21.75
2022-07-29T22:40:30.701Z,21.74
2022-07-29T22:43:03.559Z,21.72
2022-07-29T22:45:36.540Z,21.66
2022-07-29T22:48:10.740Z,21.65
2022-07-29T22:50:44.579Z,21.62
2022-07-29T22:53:17.543Z,21.61
2022-07-29T22:55:52.788Z,21.60
2022-07-29T22:58:25.605Z,21.60
2022-07-29T23:00:58.581Z,21.56
2022-07-29T23:03:32.080Z,21.52
2022-07-29T23:06:05.098Z,21.49
2022-07-29T23:08:38.107Z,21.46
2022-07-29T23:11:11.693Z,21.41
2022-07-29T23:13:44.636Z,21.40
2022-07-29T23:16:26.261Z,21.36
2022-07-29T23:18:53.302Z,21.37
2022-07-29T23:21:26.517Z,21.36
2022-07-29T23:24:00.034Z,21.34
2022-07-29T23:26:33.957Z,21.32
2022-07-29T23:29:07.800Z,21.27
2022-07-29T23:31:47.945Z,21.24
2022-07-29T23:34:16.300Z,21.24
2022-07-29T23:36:50.673Z,21.22
2022-07-29T23:39:23.845Z,21.18
2022-07-29T23:41:57.036Z,21.15
2022-07-29T23:44:30.162Z,21.12
2022-07-29T23:47:03.671Z,21.09
2022-07-29T23:49:37.643Z,21.06
2022-07-29T23:52:11.163Z,21.04
2022-07-29T23:54:44.570Z,21.03
2022-07-29T23:57:17.545Z,21.01
2022-07-29T23:59:50.370Z,20.99
